createdAt,value
2022-08-25T00:01:24.713Z,76.69
2022-08-25T00:03:55.157Z,76.76
2022-08-25T00:06:23.717Z,76.68
2022-08-25T00:08:50.966Z,75.63
2022-08-25T00:11:21.250Z,76.50
2022-08-25T00:13:54.365Z,77.74
2022-08-25T00:16:23.251Z,76.48
2022-08-25T00:18:53.033Z,76.66
2022-08-25T00:21:20.160Z,77.42
2022-08-25T00:23:46.723Z,76.36
2022-08-25T00:26:14.427Z,76.47
2022-08-25T00:28:41.495Z,77.77
2022-08-25T00:31:15.263Z,77.53
2022-08-25T00:33:43.885Z,77.81
2022-08-25T00:36:12.503Z,77.75
2022-08-25T00:38:43.953Z,76.76
2022-08-25T00:41:12.920Z,76.41
2022-08-25T00:43:42.489Z,76.59
2022-08-25T00:46:10.119Z,76.90
2022-08-25T00:48:39.466Z,77.84
2022-08-25T00:51:08.225Z,77.29
2022-08-25T00:53:34.741Z,76.69
2022-08-25T00:56:01.858Z,77.20
2022-08-25T00:58:31.201Z,76.34
2022-08-25T01:00:58.490Z,76.86
2022-08-25T01:03:33.004Z,76.81
2022-08-25T01:06:02.090Z,77.18
2022-08-25T01:08:29.866Z,76.65
2022-08-25T01:11:02.072Z,77.51
2022-08-25T01:13:42.087Z,77.22
2022-08-25T01:16:09.030Z,77.39
2022-08-25T01:18:51.896Z,77.43
2022-08-25T01:21:20.786Z,76.99
2022-08-25T01:23:48.617Z,76.95
2022-08-25T01:26:17.284Z,77.44
2022-08-25T01:29:04.530Z,77.56
2022-08-25T01:31:31.785Z,77.68
2022-08-25T01:33:59.010Z,77.58
2022-08-25T01:36:27.907Z,77.38
2022-08-25T01:38:54.990Z,78.11
2022-08-25T01:41:27.635Z,78.13
2022-08-25T01:43:54.117Z,77.93
2022-08-25T01:46:20.780Z,78.99
2022-08-25T01:48:47.924Z,80.19
2022-08-25T01:51:20.621Z,78.99
2022-08-25T01:53:47.281Z,78.63
2022-08-25T01:56:15.797Z,79.04
2022-08-25T01:58:46.130Z,78.36
2022-08-25T02:01:16.112Z,78.22
2022-08-25T02:03:44.912Z,79.61
2022-08-25T02:06:16.645Z,79.38
2022-08-25T02:08:44.177Z,80.11
2022-08-25T02:11:12.531Z,79.24
2022-08-25T02:13:40.554Z,78.30
2022-08-25T02:16:07.844Z,78.90
2022-08-25T02:18:34.396Z,78.58
2022-08-25T02:21:03.145Z,78.32
2022-08-25T02:23:30.231Z,79.56
2022-08-25T02:25:57.347Z,79.38
2022-08-25T02:28:24.399Z,78.53
2022-08-25T02:30:52.930Z,79.92
2022-08-25T02:33:25.248Z,79.49
2022-08-25T02:35:51.946Z,81.30
2022-08-25T02:38:18.438Z,79.04
2022-08-25T02:40:44.921Z,79.85
2022-08-25T02:43:11.477Z,79.44
2022-08-25T02:45:37.972Z,79.91
2022-08-25T02:48:04.768Z,80.03
2022-08-25T02:50:31.436Z,81.43
2022-08-25T02:52:57.938Z,80.25
2022-08-25T02:55:24.397Z,81.05
2022-08-25T02:57:50.954Z,79.89
2022-08-25T03:00:18.297Z,80.50
2022-08-25T03:02:45.353Z,79.71
2022-08-25T03:05:14.189Z,79.81
2022-08-25T03:07:40.839Z,80.59
2022-08-25T03:10:12.521Z,81.06
2022-08-25T03:12:41.665Z,81.61
2022-08-25T03:15:13.389Z,82.50
2022-08-25T03:17:40.275Z,82.03
2022-08-25T03:20:07.953Z,81.85
2022-08-25T03:22:34.479Z,82.37
2022-08-25T03:25:24.036Z,82.48
2022-08-25T03:27:51.945Z,81.86
2022-08-25T03:30:19.147Z,81.40
2022-08-25T03:32:45.641Z,81.11
2022-08-25T03:35:12.623Z,82.24
2022-08-25T03:37:39.839Z,82.43
2022-08-25T03:40:13.624Z,82.37
2022-08-25T03:42:45.317Z,82.40
2022-08-25T03:45:13.953Z,81.32
2022-08-25T03:47:40.854Z,81.27
2022-08-25T03:50:09.131Z,82.33
2022-08-25T03:52:40.147Z,81.79
2022-08-25T03:55:11.025Z,80.90
2022-08-25T03:57:38.221Z,81.04
2022-08-25T04:00:09.825Z,81.46
2022-08-25T04:02:36.392Z,80.35
2022-08-25T04:05:03.591Z,80.76
2022-08-25T04:07:30.441Z,81.35
2022-08-25T04:09:56.908Z,81.46
2022-08-25T04:12:23.789Z,80.68
2022-08-25T04:14:50.572Z,81.12
2022-08-25T04:17:17.676Z,81.18
2022-08-25T04:19:44.245Z,81.12
2022-08-25T04:22:11.162Z,81.98
2022-08-25T04:24:39.798Z,83.23
2022-08-25T04:27:06.284Z,83.04
2022-08-25T04:29:33.490Z,82.85
2022-08-25T04:32:00.062Z,81.78
2022-08-25T04:34:29.918Z,84.27
2022-08-25T04:37:00.426Z,84.71
2022-08-25T04:39:26.890Z,82.60
2022-08-25T04:41:53.569Z,83.67
2022-08-25T04:44:20.034Z,83.39
2022-08-25T04:46:46.569Z,81.86
2022-08-25T04:49:13.057Z,82.10
2022-08-25T04:51:41.716Z,81.17
2022-08-25T04:54:12.826Z,81.35
2022-08-25T04:56:40.798Z,82.11
2022-08-25T04:59:12.310Z,82.71
2022-08-25T05:01:39.563Z,81.68
2022-08-25T05:04:07.696Z,81.98
2022-08-25T05:06:34.370Z,82.93
2022-08-25T05:09:03.672Z,83.17
2022-08-25T05:11:32.262Z,84.93
2022-08-25T05:14:01.482Z,84.01
2022-08-25T05:16:28.242Z,84.64
2022-08-25T05:18:55.522Z,83.65
2022-08-25T05:21:25.033Z,85.52
2022-08-25T05:23:56.688Z,84.52
2022-08-25T05:26:24.106Z,86.09
2022-08-25T05:28:53.446Z,85.13
2022-08-25T05:31:22.162Z,85.13
2022-08-25T05:33:48.660Z,86.73
2022-08-25T05:36:16.184Z,85.84
2022-08-25T05:38:42.878Z,86.64
2022-08-25T05:41:12.043Z,86.64
2022-08-25T05:43:40.154Z,85.50
2022-08-25T05:46:07.510Z,84.32
2022-08-25T05:48:34.586Z,84.71
2022-08-25T05:51:02.986Z,86.61
2022-08-25T05:53:31.075Z,87.32
2022-08-25T05:56:01.428Z,87.58
2022-08-25T05:58:29.110Z,86.75
2022-08-25T06:00:56.672Z,85.60
2022-08-25T06:03:23.209Z,86.31
2022-08-25T06:05:50.186Z,86.31
2022-08-25T06:08:17.018Z,85.62
2022-08-25T06:10:43.516Z,85.58
2022-08-25T06:13:10.042Z,86.53
2022-08-25T06:15:36.674Z,85.02
2022-08-25T06:18:03.567Z,84.93
2022-08-25T06:20:31.344Z,83.85
2022-08-25T06:22:58.904Z,83.86
2022-08-25T06:25:26.824Z,83.68
2022-08-25T06:27:54.218Z,82.47
2022-08-25T06:30:24.531Z,82.48
2022-08-25T06:32:55.781Z,83.36
2022-08-25T06:35:22.762Z,82.02
2022-08-25T06:37:49.337Z,81.17
2022-08-25T06:40:16.557Z,80.82
2022-08-25T06:42:43.514Z,81.59
2022-08-25T06:45:11.253Z,80.63
2022-08-25T06:47:37.759Z,81.16
2022-08-25T06:50:05.070Z,80.03
2022-08-25T06:52:31.671Z,79.31
2022-08-25T06:54:58.170Z,79.69
2022-08-25T06:57:25.054Z,79.30
2022-08-25T06:59:53.392Z,78.45
2022-08-25T07:02:22.094Z,77.14
2022-08-25T07:04:49.530Z,78.17
2022-08-25T07:07:16.025Z,76.01
2022-08-25T07:09:43.054Z,76.23
2022-08-25T07:12:09.586Z,76.62
2022-08-25T07:14:36.877Z,76.70
2022-08-25T07:17:11.937Z,75.68
2022-08-25T07:19:39.086Z,74.00
2022-08-25T07:22:07.570Z,71.67
2022-08-25T07:24:35.989Z,72.25
2022-08-25T07:27:02.630Z,71.42
2022-08-25T07:29:32.029Z,70.97
2022-08-25T07:32:01.484Z,70.04
2022-08-25T07:34:52.214Z,69.56
2022-08-25T07:37:38.321Z,68.97
2022-08-25T07:40:08.078Z,69.63
2022-08-25T07:42:34.897Z,68.49
2022-08-25T07:45:01.874Z,68.98
2022-08-25T07:47:28.734Z,68.88
2022-08-25T07:49:55.221Z,68.27
2022-08-25T07:52:21.767Z,70.08
2022-08-25T07:54:48.244Z,71.45
2022-08-25T07:57:14.915Z,68.71
2022-08-25T07:59:42.336Z,66.73
2022-08-25T08:02:17.697Z,64.47
2022-08-25T08:04:50.742Z,65.10
2022-08-25T08:07:43.839Z,66.06
2022-08-25T08:10:42.329Z,68.01
2022-08-25T08:12:59.245Z,68.61
2022-08-25T08:15:25.902Z,68.12
2022-08-25T08:17:56.202Z,69.08
2022-08-25T08:20:24.422Z,71.13
2022-08-25T08:22:50.934Z,69.34
2022-08-25T08:25:18.871Z,65.15
2022-08-25T08:27:48.903Z,63.65
2022-08-25T08:30:16.747Z,64.65
2022-08-25T08:33:08.162Z,63.41
2022-08-25T08:35:30.074Z,61.79
2022-08-25T08:37:56.592Z,62.27
2022-08-25T08:40:23.106Z,62.20
2022-08-25T08:43:07.024Z,60.67
2022-08-25T08:45:50.708Z,59.68
2022-08-25T08:48:33.006Z,59.98
2022-08-25T08:51:11.363Z,62.53
2022-08-25T08:53:59.773Z,62.72
2022-08-25T08:56:45.412Z,60.68
2022-08-25T08:59:21.759Z,59.86
2022-08-25T09:01:54.339Z,59.91
2022-08-25T09:04:38.286Z,62.14
2022-08-25T09:07:11.753Z,62.32
2022-08-25T09:09:41.994Z,61.98
2022-08-25T09:12:11.518Z,60.76
2022-08-25T09:15:12.927Z,59.50
2022-08-25T09:17:57.857Z,56.60
2022-08-25T09:20:30.248Z,56.90
2022-08-25T09:22:56.859Z,55.90
2022-08-25T09:25:53.216Z,55.80
2022-08-25T09:28:41.095Z,55.83
2022-08-25T09:31:20.033Z,54.74
2022-08-25T09:33:46.770Z,56.33
2022-08-25T09:36:13.811Z,54.56
2022-08-25T09:38:41.288Z,54.49
2022-08-25T09:41:08.325Z,54.26
2022-08-25T09:43:36.818Z,55.99
2022-08-25T09:46:03.522Z,58.26
2022-08-25T09:48:42.382Z,58.22
2022-08-25T09:51:21.485Z,56.86
2022-08-25T09:53:55.824Z,53.32
2022-08-25T09:56:24.748Z,53.04
2022-08-25T09:58:52.688Z,49.83
2022-08-25T10:01:22.566Z,49.44
2022-08-25T10:04:00.026Z,48.79
2022-08-25T10:06:30.206Z,50.47
2022-08-25T10:09:03.973Z,51.86
2022-08-25T10:11:37.982Z,52.45
2022-08-25T10:14:14.281Z,51.46
2022-08-25T10:16:40.819Z,53.66
2022-08-25T10:19:24.173Z,50.17
2022-08-25T10:22:05.833Z,52.32
2022-08-25T10:24:32.822Z,52.78
2022-08-25T10:27:12.250Z,50.67
2022-08-25T10:30:00.678Z,50.58
2022-08-25T10:32:46.201Z,48.80
2022-08-25T10:35:14.749Z,49.42
2022-08-25T10:38:01.604Z,48.78
2022-08-25T10:40:42.230Z,50.91
2022-08-25T10:43:27.583Z,49.24
2022-08-25T10:46:03.936Z,49.39
2022-08-25T10:48:40.845Z,50.77
2022-08-25T10:51:14.598Z,48.64
2022-08-25T10:53:58.116Z,49.12
2022-08-25T10:56:41.839Z,48.08
2022-08-25T10:59:30.011Z,52.79
2022-08-25T11:02:22.749Z,52.29
2022-08-25T11:04:55.608Z,51.41
2022-08-25T11:07:49.874Z,51.69
2022-08-25T11:10:20.800Z,51.07
2022-08-25T11:12:53.760Z,49.06
2022-08-25T11:15:26.008Z,47.95
2022-08-25T11:17:59.142Z,46.39
2022-08-25T11:20:38.121Z,50.51
2022-08-25T11:23:12.060Z,48.32
2022-08-25T11:25:43.007Z,48.63
2022-08-25T11:28:49.598Z,47.10
2022-08-25T11:31:17.360Z,46.65
2022-08-25T11:33:44.215Z,47.49
2022-08-25T11:36:30.063Z,47.84
2022-08-25T11:38:59.737Z,48.04
2022-08-25T11:41:53.544Z,44.29
2022-08-25T11:44:53.385Z,49.70
2022-08-25T11:47:42.090Z,53.08
2022-08-25T11:50:30.172Z,48.62
2022-08-25T11:53:15.647Z,50.03
2022-08-25T11:55:48.740Z,49.51
2022-08-25T11:58:40.886Z,48.00
2022-08-25T12:01:35.684Z,50.66
2022-08-25T12:04:33.951Z,48.91
2022-08-25T12:07:07.379Z,46.97
2022-08-25T12:09:35.295Z,47.86
2022-08-25T12:12:28.631Z,46.70
2022-08-25T12:14:55.197Z,48.06
2022-08-25T12:17:27.525Z,49.22
2022-08-25T12:19:57.051Z,49.06
2022-08-25T12:22:23.468Z,46.76
2022-08-25T12:24:56.100Z,45.86
2022-08-25T12:27:27.228Z,45.67
2022-08-25T12:30:07.231Z,45.03
2022-08-25T12:33:02.780Z,45.18
2022-08-25T12:35:29.990Z,43.18
2022-08-25T12:38:01.456Z,44.60
2022-08-25T12:40:59.346Z,43.86
2022-08-25T12:43:33.505Z,44.82
2022-08-25T12:46:38.284Z,47.25
2022-08-25T12:49:32.397Z,48.02
2022-08-25T12:52:05.522Z,47.50
2022-08-25T12:55:13.987Z,46.63
2022-08-25T12:57:46.302Z,43.99
2022-08-25T13:03:14.148Z,46.42
2022-08-25T13:05:56.042Z,47.53
2022-08-25T13:08:33.748Z,49.29
2022-08-25T13:11:04.773Z,48.86
2022-08-25T13:13:53.519Z,48.80
2022-08-25T13:16:29.884Z,47.69
2022-08-25T13:18:59.409Z,43.90
2022-08-25T13:21:42.178Z,46.45
2022-08-25T13:24:28.415Z,47.93
2022-08-25T13:26:57.434Z,45.20
2022-08-25T13:29:26.602Z,44.69
2022-08-25T13:32:12.643Z,43.31
2022-08-25T13:34:42.847Z,47.13
2022-08-25T13:37:30.204Z,47.08
2022-08-25T13:40:27.005Z,45.10
2022-08-25T13:42:58.534Z,43.50
2022-08-25T13:45:28.283Z,44.61
2022-08-25T13:47:55.963Z,46.71
2022-08-25T13:50:26.336Z,47.59
2022-08-25T13:52:59.250Z,47.34
2022-08-25T13:55:28.614Z,48.40
2022-08-25T13:57:57.905Z,48.15
2022-08-25T14:00:43.141Z,47.31
2022-08-25T14:03:37.344Z,45.82
2022-08-25T14:06:14.956Z,47.01
2022-08-25T14:08:47.428Z,45.45
2022-08-25T14:11:30.710Z,46.22
2022-08-25T14:14:03.003Z,46.51
2022-08-25T14:16:34.838Z,45.96
2022-08-25T14:19:03.489Z,45.42
2022-08-25T14:21:33.151Z,44.63
2022-08-25T14:24:01.182Z,45.07
2022-08-25T14:26:27.693Z,44.41
2022-08-25T14:28:54.286Z,46.18
2022-08-25T14:31:30.521Z,48.32
2022-08-25T14:34:08.170Z,47.22
2022-08-25T14:36:39.013Z,46.60
2022-08-25T14:39:08.673Z,46.05
2022-08-25T14:41:37.836Z,45.37
2022-08-25T14:44:05.246Z,46.11
2022-08-25T14:46:34.350Z,47.29
2022-08-25T14:49:03.715Z,47.62
2022-08-25T14:51:32.582Z,48.41
2022-08-25T14:54:05.069Z,48.20
2022-08-25T14:56:33.008Z,49.25
2022-08-25T14:59:00.829Z,48.34
2022-08-25T15:01:29.038Z,48.06
2022-08-25T15:04:02.369Z,48.13
2022-08-25T15:06:29.150Z,48.08
2022-08-25T15:09:08.294Z,48.07
2022-08-25T15:11:35.865Z,48.78
2022-08-25T15:14:05.484Z,49.27
2022-08-25T15:16:35.121Z,51.83
2022-08-25T15:19:06.819Z,50.76
2022-08-25T15:21:34.180Z,49.77
2022-08-25T15:24:02.285Z,49.57
2022-08-25T15:26:28.817Z,50.03
2022-08-25T15:28:55.368Z,50.28
2022-08-25T15:31:22.591Z,51.88
2022-08-25T15:33:49.437Z,51.95
2022-08-25T15:36:20.676Z,50.38
2022-08-25T15:38:47.470Z,50.55
2022-08-25T15:41:14.054Z,50.93
2022-08-25T15:43:41.199Z,50.22
2022-08-25T15:46:07.736Z,51.24
2022-08-25T15:48:35.553Z,52.04
2022-08-25T15:51:02.121Z,52.94
2022-08-25T15:53:31.070Z,53.18
2022-08-25T15:55:57.602Z,53.93
2022-08-25T15:58:27.511Z,52.86
2022-08-25T16:00:56.189Z,52.01
2022-08-25T16:03:23.069Z,52.79
2022-08-25T16:05:50.421Z,53.26
2022-08-25T16:08:19.721Z,53.47
2022-08-25T16:10:46.519Z,53.77
2022-08-25T16:13:13.096Z,54.68
2022-08-25T16:15:40.577Z,55.22
2022-08-25T16:18:07.094Z,54.30
2022-08-25T16:20:35.490Z,55.54
2022-08-25T16:23:03.931Z,55.75
2022-08-25T16:25:30.810Z,54.25
2022-08-25T16:27:57.309Z,55.13
2022-08-25T16:30:23.917Z,56.27
2022-08-25T16:32:50.438Z,55.58
2022-08-25T16:35:16.995Z,55.00
2022-08-25T16:37:44.221Z,55.27
2022-08-25T16:40:14.903Z,55.75
2022-08-25T16:42:41.859Z,57.25
2022-08-25T16:45:08.745Z,57.10
2022-08-25T16:47:38.039Z,56.38
2022-08-25T16:50:08.912Z,57.37
2022-08-25T16:52:55.924Z,56.35
2022-08-25T16:55:25.219Z,57.45
2022-08-25T16:57:54.188Z,56.58
2022-08-25T17:00:25.073Z,56.54
2022-08-25T17:02:58.362Z,57.18
2022-08-25T17:05:26.452Z,57.64
2022-08-25T17:08:12.526Z,57.72
2022-08-25T17:10:42.676Z,57.76
2022-08-25T17:13:10.232Z,58.46
2022-08-25T17:15:45.044Z,58.01
2022-08-25T17:18:12.833Z,58.19
2022-08-25T17:20:42.044Z,58.47
2022-08-25T17:23:11.977Z,58.55
2022-08-25T17:25:41.320Z,58.76
2022-08-25T17:28:09.687Z,58.84
2022-08-25T17:30:39.801Z,58.60
2022-08-25T17:33:06.622Z,58.30
2022-08-25T17:35:39.064Z,58.98
2022-08-25T17:38:06.280Z,59.34
2022-08-25T17:40:33.578Z,60.17
2022-08-25T17:43:01.658Z,61.38
2022-08-25T17:45:28.291Z,61.24
2022-08-25T17:47:55.007Z,61.20
2022-08-25T17:50:22.084Z,60.95
2022-08-25T17:52:49.247Z,62.31
2022-08-25T17:55:15.877Z,61.59
2022-08-25T17:57:43.010Z,62.43
2022-08-25T18:00:12.145Z,63.80
2022-08-25T18:02:39.932Z,63.25
2022-08-25T18:05:06.827Z,64.20
2022-08-25T18:07:33.382Z,63.73
2022-08-25T18:10:00.608Z,64.28
2022-08-25T18:12:27.834Z,63.63
2022-08-25T18:14:54.428Z,63.86
2022-08-25T18:17:21.959Z,63.45
2022-08-25T18:19:49.536Z,64.99
2022-08-25T18:22:16.728Z,64.76
2022-08-25T18:24:44.425Z,65.50
2022-08-25T18:27:13.101Z,64.42
2022-08-25T18:29:41.305Z,65.71
2022-08-25T18:32:08.495Z,65.32
2022-08-25T18:34:39.426Z,67.11
2022-08-25T18:37:25.554Z,65.76
2022-08-25T18:40:18.648Z,66.53
2022-08-25T18:42:45.448Z,67.37
2022-08-25T18:45:12.632Z,66.43
2022-08-25T18:47:39.259Z,66.07
2022-08-25T18:50:06.687Z,67.49
2022-08-25T18:52:33.382Z,68.87
2022-08-25T18:55:01.247Z,68.41
2022-08-25T18:57:28.489Z,68.44
2022-08-25T18:59:57.547Z,68.47
2022-08-25T19:02:25.283Z,68.21
2022-08-25T19:04:52.709Z,67.52
2022-08-25T19:07:19.740Z,67.77
2022-08-25T19:09:46.405Z,69.13
2022-08-25T19:12:22.711Z,69.04
2022-08-25T19:14:50.099Z,71.04
2022-08-25T19:17:17.138Z,69.53
2022-08-25T19:19:43.796Z,70.62
2022-08-25T19:22:31.839Z,71.37
2022-08-25T19:24:58.137Z,70.85
2022-08-25T19:27:25.010Z,71.63
2022-08-25T19:29:52.033Z,71.45
2022-08-25T19:32:18.915Z,71.85
2022-08-25T19:34:47.365Z,71.93
2022-08-25T19:37:18.160Z,71.72
2022-08-25T19:39:52.916Z,71.27
2022-08-25T19:42:37.110Z,72.43
2022-08-25T19:45:07.729Z,71.89
2022-08-25T19:47:34.416Z,71.18
2022-08-25T19:50:00.956Z,70.89
2022-08-25T19:52:27.801Z,70.83
2022-08-25T19:54:55.632Z,71.52
2022-08-25T19:57:28.403Z,70.07
2022-08-25T20:00:13.893Z,71.33
2022-08-25T20:02:40.576Z,71.89
2022-08-25T20:05:08.352Z,71.68
2022-08-25T20:07:35.588Z,71.10
2022-08-25T20:10:04.237Z,72.56
2022-08-25T20:12:30.943Z,72.10
2022-08-25T20:14:58.083Z,72.18
2022-08-25T20:17:26.242Z,73.51
2022-08-25T20:19:57.911Z,73.23
2022-08-25T20:22:30.918Z,75.05
2022-08-25T20:25:03.265Z,74.18
2022-08-25T20:27:37.429Z,75.28
2022-08-25T20:30:08.582Z,74.91
2022-08-25T20:32:35.723Z,74.05
2022-08-25T20:35:05.074Z,74.82
2022-08-25T20:37:41.996Z,75.27
2022-08-25T20:40:09.916Z,73.72
2022-08-25T20:42:38.149Z,75.01
2022-08-25T20:45:08.154Z,73.53
2022-08-25T20:47:36.216Z,74.87
2022-08-25T20:50:06.936Z,75.56
2022-08-25T20:52:34.646Z,73.98
2022-08-25T20:55:01.492Z,74.69
2022-08-25T20:57:28.112Z,73.70
2022-08-25T20:59:56.014Z,74.86
2022-08-25T21:02:24.403Z,74.58
2022-08-25T21:04:52.634Z,74.76
2022-08-25T21:07:19.857Z,73.50
2022-08-25T21:09:47.842Z,73.89
2022-08-25T21:12:15.666Z,74.40
2022-08-25T21:14:42.440Z,73.67
2022-08-25T21:17:12.191Z,73.97
2022-08-25T21:19:40.031Z,74.92
2022-08-25T21:22:08.285Z,75.46
2022-08-25T21:24:34.896Z,75.37
2022-08-25T21:27:03.256Z,75.16
2022-08-25T21:29:32.607Z,76.41
2022-08-25T21:31:59.229Z,74.99
2022-08-25T21:34:28.925Z,75.32
2022-08-25T21:36:57.966Z,75.11
2022-08-25T21:39:28.028Z,76.04
2022-08-25T21:41:55.651Z,75.33
2022-08-25T21:44:22.260Z,75.53
2022-08-25T21:46:54.646Z,76.44
2022-08-25T21:49:22.160Z,76.09
2022-08-25T21:51:59.245Z,76.81
2022-08-25T21:54:27.257Z,76.26
2022-08-25T21:56:59.618Z,76.95
2022-08-25T21:59:29.801Z,76.42
2022-08-25T22:01:58.200Z,76.93
2022-08-25T22:04:25.736Z,76.50
2022-08-25T22:06:52.325Z,76.64
2022-08-25T22:09:19.088Z,78.18
2022-08-25T22:11:46.127Z,78.37
2022-08-25T22:14:14.570Z,77.30
2022-08-25T22:16:42.989Z,76.78
2022-08-25T22:19:11.812Z,77.29
2022-08-25T22:21:39.424Z,77.71
2022-08-25T22:24:06.391Z,78.46
2022-08-25T22:26:34.266Z,76.98
2022-08-25T22:29:01.902Z,76.82
2022-08-25T22:31:28.856Z,78.36
2022-08-25T22:33:57.755Z,78.08
2022-08-25T22:36:30.170Z,79.25
2022-08-25T22:38:57.281Z,77.98
2022-08-25T22:41:25.939Z,77.91
2022-08-25T22:43:55.422Z,77.00
2022-08-25T22:46:22.487Z,78.07
2022-08-25T22:48:50.289Z,78.75
2022-08-25T22:51:20.888Z,78.36
2022-08-25T22:53:49.110Z,79.94
2022-08-25T22:56:18.156Z,79.84
2022-08-25T22:58:52.078Z,78.57
2022-08-25T23:01:20.165Z,79.89
2022-08-25T23:03:47.563Z,80.14
2022-08-25T23:06:24.457Z,79.02
2022-08-25T23:08:53.786Z,79.64
2022-08-25T23:11:21.523Z,78.34
2022-08-25T23:13:48.033Z,78.83
2022-08-25T23:16:15.361Z,78.14
2022-08-25T23:18:43.977Z,79.21
2022-08-25T23:21:37.922Z,79.96
2022-08-25T23:24:08.297Z,80.13
2022-08-25T23:26:34.842Z,78.56
2022-08-25T23:29:03.255Z,80.15
2022-08-25T23:31:44.199Z,80.44
2022-08-25T23:34:10.935Z,81.61
2022-08-25T23:36:38.091Z,80.05
2022-08-25T23:39:05.007Z,79.52
2022-08-25T23:41:34.224Z,79.79
2022-08-25T23:44:05.371Z,80.55
2022-08-25T23:46:35.005Z,81.82
2022-08-25T23:49:03.048Z,81.10
2022-08-25T23:51:34.010Z,80.62
2022-08-25T23:54:05.956Z,81.60
2022-08-25T23:56:34.155Z,80.37
2022-08-25T23:59:03.243Z,80.73
